ZBAA/PEK METAR and TAF weather

Enter ICAO airport designator
Station Type Date Time Source
ZBAA METAR 2019/08/20 09:30 UTC NOAA

ZBAA 200930Z VRB01MPS 9999 SCT020 21/19 Q1008 NOSIG


Station Type Date Time Source
ZBAA Decoded METAR 2019/08/20 09:30 UTC NOAA

Beijing, China (ZBAA) 39-56N 116-17E 55M
Aug 20, 2019 - 05:30 AM EDT / 2019.08.20 0930 UTC
Wind: Variable at 2 MPH (2 KT):0
Visibility: greater than 7 mile(s):0
Sky conditions: partly cloudy
Temperature: 69 F (21 C)
Dew Point: 66 F (19 C)
Relative Humidity: 88%
Pressure (altimeter): 29.77 in. Hg (1008 hPa)
ob: ZBAA 200930Z VRB01MPS 9999 SCT020 21/19 Q1008 NOSIG
cycle: 9

Station Type Date Time Source
ZBAA TAF 2019/08/20 06:03 UTC NOAA

TAF TAF ZBAA 200320Z 2006/2106 18004MPS 5000 BR NSC TX26/2007Z TN19/2021Z

Example: see airport list